createdAt,value
2023-05-11T00:02:06.815Z,98.28
2023-05-11T00:07:10.193Z,99.20
2023-05-11T00:12:12.343Z,99.70
2023-05-11T00:17:14.421Z,99.15
2023-05-11T00:22:17.724Z,98.94
2023-05-11T00:27:19.981Z,99.96
2023-05-11T00:32:22.101Z,100.00
2023-05-11T00:37:26.186Z,100.00
2023-05-11T00:42:28.074Z,100.00
2023-05-11T00:47:31.061Z,100.00
2023-05-11T00:52:34.713Z,100.00
2023-05-11T00:57:38.857Z,100.00
2023-05-11T01:02:41.647Z,100.00
2023-05-11T01:08:04.017Z,100.00
2023-05-11T01:13:14.905Z,100.00
2023-05-11T01:18:22.704Z,100.00
2023-05-11T01:24:00.490Z,100.00
2023-05-11T01:29:20.026Z,100.00
2023-05-11T01:34:26.653Z,100.00
2023-05-11T01:39:32.989Z,100.00
2023-05-11T01:44:37.196Z,100.00
2023-05-11T01:49:44.424Z,100.00
2023-05-11T01:54:48.353Z,100.00
2023-05-11T01:59:52.617Z,100.00
2023-05-11T02:04:57.969Z,100.00
2023-05-11T02:10:00.892Z,100.00
2023-05-11T02:15:04.479Z,100.00
2023-05-11T02:20:11.246Z,100.00
2023-05-11T02:25:15.930Z,100.00
2023-05-11T02:30:18.786Z,100.00
2023-05-11T02:35:25.744Z,100.00
2023-05-11T02:40:32.061Z,100.00
2023-05-11T02:45:35.425Z,100.00
2023-05-11T02:50:41.267Z,100.00
2023-05-11T02:55:43.458Z,100.00
2023-05-11T03:00:46.129Z,100.00
2023-05-11T03:05:49.787Z,100.00
2023-05-11T03:10:52.990Z,100.00
2023-05-11T03:15:56.000Z,100.00
2023-05-11T03:21:01.636Z,100.00
2023-05-11T03:26:05.063Z,100.00
2023-05-11T03:31:07.396Z,100.00
2023-05-11T03:36:12.793Z,100.00
2023-05-11T03:41:16.955Z,100.00
2023-05-11T03:46:21.741Z,100.00
2023-05-11T03:51:25.562Z,100.00
2023-05-11T03:56:27.444Z,100.00
2023-05-11T04:01:30.270Z,100.00
2023-05-11T04:06:33.465Z,100.00
2023-05-11T04:11:37.092Z,100.00
2023-05-11T04:16:39.308Z,100.00
2023-05-11T04:21:42.735Z,100.00
2023-05-11T04:26:44.914Z,100.00
2023-05-11T04:31:47.206Z,100.00
2023-05-11T04:36:51.607Z,99.84
2023-05-11T04:41:54.098Z,92.71
2023-05-11T04:46:56.580Z,77.23
2023-05-11T04:52:00.131Z,71.03
2023-05-11T04:57:02.421Z,65.50
2023-05-11T05:02:04.824Z,65.03
2023-05-11T05:07:08.248Z,61.33
2023-05-11T05:12:10.362Z,60.92
2023-05-11T05:17:12.117Z,58.20
2023-05-11T05:22:15.659Z,55.75
2023-05-11T05:27:17.893Z,54.69
2023-05-11T05:32:20.532Z,52.63
2023-05-11T05:37:24.438Z,52.82
2023-05-11T05:42:26.549Z,50.19
2023-05-11T05:47:28.714Z,50.42
2023-05-11T05:52:32.143Z,51.82
2023-05-11T05:57:34.012Z,50.89
2023-05-11T06:02:36.384Z,51.21
2023-05-11T06:07:39.999Z,49.20
2023-05-11T06:12:41.775Z,48.10
2023-05-11T06:17:44.029Z,48.57
2023-05-11T06:22:47.625Z,46.47
2023-05-11T06:27:49.487Z,45.55
2023-05-11T06:32:51.867Z,47.13
2023-05-11T06:37:55.414Z,45.62
2023-05-11T06:42:57.132Z,43.69
2023-05-11T06:47:59.220Z,45.43
2023-05-11T06:53:02.770Z,47.02
2023-05-11T06:58:04.798Z,48.31
2023-05-11T07:03:08.232Z,47.53
2023-05-11T07:08:12.101Z,47.45
2023-05-11T07:13:14.266Z,46.85
2023-05-11T07:18:16.469Z,45.49
2023-05-11T07:23:20.578Z,42.71
2023-05-11T07:28:22.477Z,41.64
2023-05-11T07:33:25.040Z,44.02
2023-05-11T07:38:28.474Z,41.71
2023-05-11T07:43:30.786Z,41.20
2023-05-11T07:48:32.559Z,40.25
2023-05-11T07:53:36.037Z,39.15
2023-05-11T07:58:38.203Z,40.71
2023-05-11T08:03:40.506Z,40.33
2023-05-11T08:08:44.006Z,38.46
2023-05-11T08:13:46.081Z,39.08
2023-05-11T08:18:48.767Z,38.80
2023-05-11T08:23:52.493Z,39.22
2023-05-11T08:28:54.668Z,38.51
2023-05-11T08:33:57.119Z,39.90
2023-05-11T08:39:00.685Z,38.78
2023-05-11T08:44:03.181Z,36.63
2023-05-11T08:49:05.597Z,36.59
2023-05-11T08:54:09.235Z,35.21
2023-05-11T08:59:14.120Z,35.44
2023-05-11T09:04:17.302Z,34.63
2023-05-11T09:09:21.038Z,35.38
2023-05-11T09:14:27.079Z,32.19
2023-05-11T09:19:29.700Z,33.06
2023-05-11T09:24:33.654Z,32.76
2023-05-11T09:29:36.250Z,34.98
2023-05-11T09:34:43.090Z,33.49
2023-05-11T09:40:14.232Z,34.40
2023-05-11T09:45:10.574Z,32.22
2023-05-11T09:50:17.729Z,32.16
2023-05-11T09:55:21.715Z,32.49
2023-05-11T10:00:23.899Z,31.89
2023-05-11T10:05:26.476Z,32.95
2023-05-11T10:10:31.334Z,32.09
2023-05-11T10:15:35.620Z,33.71
2023-05-11T10:20:39.049Z,30.47
2023-05-11T10:25:43.112Z,29.95
2023-05-11T10:30:46.106Z,27.18
2023-05-11T10:35:50.030Z,28.88
2023-05-11T10:41:02.361Z,29.60
2023-05-11T10:46:15.362Z,31.86
2023-05-11T10:51:41.906Z,30.29
2023-05-11T10:56:55.816Z,31.10
2023-05-11T11:01:58.390Z,30.92
2023-05-11T11:07:07.149Z,30.90
2023-05-11T11:12:11.479Z,30.68
2023-05-11T11:17:25.601Z,30.02
2023-05-11T11:22:45.065Z,31.48
2023-05-11T11:27:59.262Z,32.21
2023-05-11T11:33:32.990Z,30.80
2023-05-11T11:38:58.607Z,28.69
2023-05-11T11:44:03.053Z,30.42
2023-05-11T11:49:09.685Z,30.48
2023-05-11T11:54:11.886Z,32.71
2023-05-11T11:59:15.852Z,31.35
2023-05-11T12:04:34.468Z,31.47
2023-05-11T12:09:39.027Z,33.83
2023-05-11T12:14:43.121Z,33.91
2023-05-11T12:19:45.799Z,33.48
2023-05-11T12:24:48.504Z,33.70
2023-05-11T12:29:52.076Z,33.25
2023-05-11T12:35:01.209Z,34.01
2023-05-11T12:40:03.854Z,33.88
2023-05-11T12:45:08.884Z,33.30
2023-05-11T12:50:11.369Z,32.21
2023-05-11T12:55:13.668Z,32.29
2023-05-11T13:00:19.450Z,32.65
2023-05-11T13:05:26.294Z,33.93
2023-05-11T13:10:28.418Z,33.24
2023-05-11T13:15:32.245Z,33.86
2023-05-11T13:20:34.773Z,34.29
2023-05-11T13:25:52.532Z,34.72
2023-05-11T13:31:01.404Z,36.34
2023-05-11T13:36:04.151Z,35.23
2023-05-11T13:41:06.724Z,34.81
2023-05-11T13:46:10.474Z,34.72
2023-05-11T13:51:12.258Z,34.54
2023-05-11T13:56:14.315Z,34.41
2023-05-11T14:01:17.862Z,33.67
2023-05-11T14:06:22.655Z,34.33
2023-05-11T14:11:24.782Z,34.62
2023-05-11T14:16:28.241Z,35.14
2023-05-11T14:21:30.644Z,34.22
2023-05-11T14:26:33.070Z,33.70
2023-05-11T14:31:36.856Z,33.00
2023-05-11T14:36:38.851Z,32.59
2023-05-11T14:41:41.223Z,32.64
2023-05-11T14:46:44.732Z,33.44
2023-05-11T14:51:47.070Z,33.04
2023-05-11T14:56:49.274Z,33.86
2023-05-11T15:01:53.138Z,31.87
2023-05-11T15:06:55.434Z,32.36
2023-05-11T15:11:57.548Z,33.28
2023-05-11T15:17:01.076Z,33.43
2023-05-11T15:22:03.482Z,33.15
2023-05-11T15:27:06.044Z,32.55
2023-05-11T15:32:13.131Z,34.20
2023-05-11T15:37:15.045Z,34.92
2023-05-11T15:42:17.410Z,35.23
2023-05-11T15:47:21.253Z,35.81
2023-05-11T15:52:23.973Z,36.38
2023-05-11T15:57:25.990Z,36.06
2023-05-11T16:02:29.403Z,35.66
2023-05-11T16:07:31.716Z,35.57
2023-05-11T16:12:33.836Z,34.07
2023-05-11T16:17:37.627Z,34.84
2023-05-11T16:22:40.007Z,36.02
2023-05-11T16:27:42.121Z,35.99
2023-05-11T16:32:46.250Z,36.85
2023-05-11T16:37:48.581Z,36.87
2023-05-11T16:42:51.249Z,36.06
2023-05-11T16:47:54.875Z,36.49
2023-05-11T16:52:57.053Z,36.46
2023-05-11T16:57:58.973Z,36.54
2023-05-11T17:03:02.703Z,36.97
2023-05-11T17:08:05.068Z,38.47
2023-05-11T17:13:07.098Z,37.89
2023-05-11T17:18:10.371Z,37.73
2023-05-11T17:23:12.410Z,38.19
2023-05-11T17:28:14.570Z,39.98
2023-05-11T17:33:18.644Z,38.39
2023-05-11T17:38:20.862Z,38.87
2023-05-11T17:43:23.054Z,39.38
2023-05-11T17:48:26.668Z,39.22
2023-05-11T17:53:28.460Z,39.73
2023-05-11T17:58:30.573Z,38.94
2023-05-11T18:03:34.196Z,39.16
2023-05-11T18:08:36.304Z,39.02
2023-05-11T18:13:38.687Z,39.19
2023-05-11T18:18:41.845Z,39.96
2023-05-11T18:23:43.623Z,39.68
2023-05-11T18:28:45.466Z,41.02
2023-05-11T18:33:48.548Z,41.58
2023-05-11T18:38:50.343Z,41.17
2023-05-11T18:43:52.639Z,42.69
2023-05-11T18:48:56.105Z,41.84
2023-05-11T18:53:57.923Z,41.64
2023-05-11T18:58:59.630Z,42.02
2023-05-11T19:04:03.103Z,41.91
2023-05-11T19:09:05.023Z,42.85
2023-05-11T19:14:07.078Z,42.68
2023-05-11T19:19:10.352Z,43.00
2023-05-11T19:24:12.817Z,43.01
2023-05-11T19:29:14.483Z,43.74
2023-05-11T19:34:17.729Z,43.28
2023-05-11T19:39:19.545Z,43.65
2023-05-11T19:44:22.599Z,43.52
2023-05-11T19:49:26.010Z,43.44
2023-05-11T19:54:28.422Z,42.99
2023-05-11T19:59:31.347Z,43.19
2023-05-11T20:04:34.879Z,43.36
2023-05-11T20:09:37.611Z,43.52
2023-05-11T20:14:39.904Z,43.13
2023-05-11T20:19:43.484Z,43.97
2023-05-11T20:24:45.812Z,44.45
2023-05-11T20:29:48.403Z,44.82
2023-05-11T20:34:51.929Z,45.60
2023-05-11T20:39:54.098Z,46.14
2023-05-11T20:44:56.281Z,46.62
2023-05-11T20:49:59.951Z,46.70
2023-05-11T20:55:01.807Z,46.59
2023-05-11T21:00:05.157Z,46.91
2023-05-11T21:05:08.629Z,47.76
2023-05-11T21:10:11.521Z,48.10
2023-05-11T21:15:13.484Z,47.75
2023-05-11T21:20:16.924Z,48.04
2023-05-11T21:25:18.959Z,48.32
2023-05-11T21:30:21.407Z,48.03
2023-05-11T21:35:25.083Z,48.85
2023-05-11T21:40:27.393Z,48.10
2023-05-11T21:45:29.670Z,49.22
2023-05-11T21:50:33.265Z,49.67
2023-05-11T21:55:35.496Z,49.97
2023-05-11T22:00:37.604Z,49.93
2023-05-11T22:05:41.257Z,50.61
2023-05-11T22:10:43.574Z,50.96
2023-05-11T22:15:45.758Z,50.99
2023-05-11T22:20:49.218Z,51.09
2023-05-11T22:25:51.676Z,51.57
2023-05-11T22:30:53.675Z,52.32
2023-05-11T22:35:57.257Z,52.45
2023-05-11T22:40:59.368Z,52.87
2023-05-11T22:46:01.829Z,53.23
2023-05-11T22:51:05.906Z,54.00
2023-05-11T22:56:08.406Z,54.92
2023-05-11T23:01:10.583Z,55.80
2023-05-11T23:06:14.148Z,55.44
2023-05-11T23:11:16.361Z,55.80
2023-05-11T23:16:18.442Z,55.52
2023-05-11T23:21:22.006Z,55.91
2023-05-11T23:26:23.852Z,56.19
2023-05-11T23:31:26.182Z,55.76
2023-05-11T23:36:29.423Z,55.61
2023-05-11T23:41:31.457Z,55.25
2023-05-11T23:46:33.781Z,55.74
2023-05-11T23:51:37.327Z,56.09
2023-05-11T23:56:39.440Z,56.42
